FW5819 Weather Reports


Display with metric or nautical units.
time (UTC)temp
F
wind
direction
speed
MPH
gust
MPH
rain 1hr
in
rain 24hr
in
rain mn
in
humidity
%
barometer
mb
20240530010028 56 39 0.0 5.0 0.00 0.36 0.36 63 1019.9
20240530004520 57 15 2.0 7.0 0.00 0.36 0.36 61 1020.1
20240530003023 58 346 1.0 5.0 0.00 0.36 0.36 62 1020.1
20240530001517 58 0 1.0 9.0 0.00 0.36 0.36 63 1020.2
20240530000024 59 28 1.0 5.0 0.00 0.36 0.36 63 1020.1
20240529234532 60 32 2.0 6.0 0.00 0.36 0.36 62 1020.1
20240529233019 61 88 3.0 11.0 0.00 0.36 0.36 59 1019.9
20240529231523 62 335 3.0 13.0 0.00 0.36 0.36 66 1019.8
20240529230018 62 40 4.0 11.0 0.00 0.36 0.36 66 1019.7
20240529224517 63 342 3.0 13.0 0.00 0.36 0.36 68 1019.4
20240529223025 62 67 3.0 14.0 0.00 0.36 0.36 72 1019.2
20240529221517 63 40 4.0 10.0 0.00 0.36 0.36 75 1019.0
20240529220022 62 331 4.0 11.0 0.00 0.36 0.36 81 1018.9
20240529214520 62 46 5.0 14.0 0.00 0.36 0.36 80 1018.8
20240529213025 63 332 4.0 10.0 0.00 0.36 0.36 79 1018.6
20240529211524 63 334 2.0 6.0 0.00 0.36 0.36 80 1018.6
20240529210023 63 5 2.0 7.0 0.00 0.36 0.36 80 1018.6
20240529204529 64 352 2.0 7.0 0.00 0.36 0.36 77 1018.4
20240529203021 65 352 4.0 9.0 0.00 0.36 0.36 79 1018.3
20240529201520 62 20 2.0 8.0 0.00 0.36 0.36 82 1018.2
20240529200034 63 29 2.0 8.0 0.00 0.36 0.36 79 1018.2
20240529194520 63 319 3.0 8.0 0.00 0.36 0.36 82 1018.1
20240529193021 64 320 4.0 9.0 0.00 0.36 0.36 80 1018.0
20240529191524 66 327 4.0 10.0 0.00 0.36 0.36 77 1018.0
20240529190021 66 288 5.0 12.0 0.00 0.36 0.36 79 1017.8
20240529184520 66 309 3.0 9.0 0.00 0.36 0.36 78 1017.7
20240529183020 65 294 5.0 11.0 0.00 0.36 0.36 77 1017.7
20240529181524 65 341 3.0 10.0 0.00 0.36 0.36 80 1017.6
20240529180026 65 323 4.0 9.0 0.00 0.36 0.36 80 1017.6
20240529174525 64 74 4.0 11.0 0.00 0.36 0.36 82 1017.6
20240529173025 63 327 4.0 8.0 0.00 0.36 0.36 83 1017.7
20240529171523 63 292 4.0 11.0 0.00 0.36 0.36 84 1017.6
20240529170050 63 281 3.0 10.0 0.00 0.36 0.36 83 1017.6
20240529164520 63 248 3.0 8.0 0.00 0.36 0.36 85 1017.5
20240529163023 62 262 2.0 7.0 0.00 0.36 0.36 88 1017.5
20240529161522 61 360 2.0 6.0 0.00 0.36 0.36 88 1017.5
20240529160021 61 296 2.0 8.0 0.00 0.36 0.36 90 1017.5
20240529154521 60 348 3.0 7.0 0.01 0.36 0.36 92 1017.5
20240529153020 59 360 0.0 4.0 0.01 0.36 0.36 94 1017.4
20240529151524 58 13 1.0 4.0 0.02 0.36 0.36 94 1017.2
20240529150021 58 0 0.0 1.0 0.02 0.36 0.36 94 1017.1
20240529144520 57 0 0.0 0.0 0.03 0.35 0.35 93 1017.0
20240529143020 57 0 0.0 0.0 0.12 0.35 0.35 93 1016.8
20240529141523 58 0 0.0 0.0 0.16 0.34 0.34 94 1016.6
20240529140029 57 0 0.0 0.0 0.21 0.34 0.34 93 1016.5
20240529134520 57 0 0.0 0.0 0.20 0.32 0.32 94 1016.6
20240529133024 57 0 0.0 0.0 0.12 0.23 0.23 94 1016.4
20240529131531 57 0 0.0 0.0 0.07 0.18 0.18 94 1016.1
20240529130028 57 0 0.0 0.0 0.03 0.13 0.13 94 1015.9
20240529124524 57 0 0.0 0.0 0.04 0.12 0.12 94 1015.7
20240529123023 56 0 0.0 1.0 0.08 0.11 0.11 94 1015.6
20240529121521 56 0 0.0 1.0 0.10 0.11 0.11 94 1015.4
20240529120022 56 299 0.0 1.0 0.09 0.10 0.10 93 1015.3
20240529114520 56 34 0.0 2.0 0.07 0.08 0.08 93 1015.1
20240529113021 56 45 0.0 3.0 0.02 0.03 0.03 93 1015.0
20240529111518 56 0 0.0 0.0 0.00 0.01 0.01 94 1014.9
20240529110023 56 0 0.0 0.0 0.00 0.01 0.01 93 1014.6
20240529104520 56 0 0.0 0.0 0.00 0.01 0.01 93 1014.5
20240529103026 56 0 0.0 0.0 0.01 0.01 0.01 93 1014.4
20240529101547 56 0 0.0 0.0 0.01 0.01 0.01 93 1014.3
20240529100032 56 0 0.0 0.0 0.01 0.01 0.01 93 1014.4
20240529094525 56 0 0.0 0.0 0.01 0.01 0.01 93 1014.1
20240529093038 56 0 0.0 0.0 0.00 0.00 0.00 93 1014.1
20240529091533 56 0 0.0 0.0 0.00 0.00 0.00 93 1014.2
20240529090017 56 0 0.0 0.0 0.00 0.00 0.00 93 1014.1
20240529084520 56 0 0.0 1.0 0.00 0.00 0.00 93 1014.2
20240529083020 55 0 0.0 0.0 0.00 0.00 0.00 93 1014.1
20240529081522 55 0 0.0 0.0 0.00 0.00 0.00 93 1014.1
20240529080023 55 0 0.0 0.0 0.00 0.00 0.00 93 1014.0
20240529074520 55 0 0.0 0.0 0.00 0.00 0.00 93 1013.9
20240529073023 55 0 0.0 0.0 0.00 0.00 0.00 92 1014.0
20240529071520 54 0 0.0 0.0 0.00 0.00 0.00 92 1014.0
20240529070027 54 0 0.0 0.0 0.00 0.00 0.00 92 1013.9
20240529064529 54 0 0.0 0.0 0.00 0.00 0.00 92 1013.9
20240529063053 54 0 0.0 0.0 0.00 0.00 0.00 92 1014.0
20240529061536 54 0 0.0 0.0 0.00 0.00 0.00 92 1014.1
20240529060027 54 0 0.0 0.0 0.00 0.00 0.00 91 1014.1
20240529054520 54 0 0.0 0.0 0.00 0.00 0.00 91 1014.3
20240529053020 54 0 0.0 0.0 0.00 0.00 0.00 91 1014.4
20240529051523 54 0 0.0 0.0 0.00 0.00 0.00 91 1014.3
20240529050023 54 0 0.0 0.0 0.00 0.00 0.00 90 1014.5
20240529044520 54 0 0.0 0.0 0.00 0.00 0.00 90 1014.4
20240529043026 55 0 0.0 0.0 0.00 0.00 0.00 89 1014.6
20240529041525 55 0 0.0 0.0 0.00 0.00 0.00 89 1014.7
20240529040026 56 0 0.0 0.0 0.00 0.00 0.00 89 1014.5
20240529035008 56 0 0.0 0.0 0.00 0.00 0.00 88 1014.4
20240529030753 58 0 0.0 3.0 0.00 0.00 0.00 88 1014.8
20240529022852 59 0 0.0 0.0 0.00 0.00 0.00 88 1014.4
20240529015209 59 0 0.0 0.0 0.00 0.00 0.00 86 1014.5
20240529011221 60 0 0.0 0.0 0.00 0.00 0.00 83 1014.5